Flinter Rose — PBUB — position and weather

sailwx.info

Track history (hours):
 
Tides and Currents Weather Stations Pressure Air Temp Water Temp Dewpoint Dewpoint Depression Visibility Wind Speed Wind Dir Waves Ship Positions

Flinter Rose

Last reported at 2014-Aug-29 05:11 UTC. Time now 2014-Aug-29 12:15 UTC.
Position N 36°34' W 000°38'.

Length 101 m; draft 5.7 m.

Type: Cargo ship. MMSI: 246227000.

Date/timePositionNaut miles runAvg speedWind from/ knotsBaromVisibWave heightAir tempDewpointWater temp
2014-Aug-29 05:11N 36°34' W 000°38'2810.5
2014-Aug-29 02:34N 36°41' W 000°04'1210.1
2014-Aug-29 01:23N 36°44' E 000°10'910.4
2014-Aug-29 00:29N 36°46' E 000°21'1010.3
2014-Aug-28 23:32N 36°49' E 000°33'10 9.8
2014-Aug-28 22:33N 36°51' E 000°45'1010.1
2014-Aug-28 21:33N 36°54' E 000°57'1110.4
2014-Aug-28 20:32N 36°56' E 001°10'1010.5
2014-Aug-28 19:33N 36°59' E 001°22'1110.6
2014-Aug-28 18:33N 37°02' E 001°35'1010.2
2014-Aug-28 17:33N 37°04' E 001°47'1010.5
2014-Aug-28 16:33N 37°07' E 002°00'1010.4
2014-Aug-28 15:33N 37°09' E 002°13'1210.4
2014-Aug-28 14:21N 37°13' E 002°28'910.5
2014-Aug-28 13:32N 37°15' E 002°38'1010.3
2014-Aug-28 12:33N 37°17' E 002°51'10 9.8
2014-Aug-28 11:33N 37°19' E 003°03'9 9.5
2014-Aug-28 10:33N 37°19' E 003°15'10 9.8
2014-Aug-28 09:33N 37°20' E 003°27'1010.1
2014-Aug-28 08:33N 37°21' E 003°40'1110.6
2014-Aug-28 07:33N 37°22' E 003°53'1111.5
2014-Aug-28 06:33N 37°23' E 004°08'1110.7
2014-Aug-28 05:33N 37°24' E 004°21'1110.3
2014-Aug-28 04:32N 37°25' E 004°34'1210.4
2014-Aug-28 03:23N 37°25' E 004°49'910.1
2014-Aug-28 02:30N 37°26' E 005°00'1110.4
2014-Aug-28 01:29N 37°27' E 005°14'1010.9
2014-Aug-28 00:33N 37°28' E 005°26'1111.3
2014-Aug-27 23:33N 37°29' E 005°40'6711.2
2014-Aug-27 17:33N 37°34' E 007°05'7 7.0
2014-Aug-27 16:32N 37°35' E 007°14'1110.3
2014-Aug-27 15:27N 37°36' E 007°28'22 9.9
2014-Aug-27 13:12N 37°38' E 007°56'5010.3
2014-Aug-27 08:21N 37°41' E 008°59'6 7.2
2014-Aug-27 07:33N 37°41' E 009°06'3 3.3
2014-Aug-27 06:33N 37°41' E 009°11'9 9.5
2014-Aug-27 05:33N 37°41' E 009°23'10 9.6
2014-Aug-27 04:32N 37°41' E 009°35'10 9.6
2014-Aug-27 03:33N 37°41' E 009°47'9 9.5
2014-Aug-27 02:33N 37°42' E 009°59'10 9.6
2014-Aug-27 01:33N 37°42' E 010°11'10 9.7
2014-Aug-27 00:33N 37°42' E 010°23'10 9.7
2014-Aug-26 23:33N 37°40' E 010°35'1010.1
2014-Aug-26 22:33N 37°37' E 010°47'1010.2
2014-Aug-26 21:33N 37°33' E 010°59'1110.6
2014-Aug-26 20:33N 37°30' E 011°12'1111.0
2014-Aug-26 19:33N 37°26' E 011°25'15010.5
2014-Aug-26 05:14N 36°34' E 014°21'710.1
2014-Aug-26 04:33N 36°31' E 014°29'42410.0
2014-Aug-24 10:23N 36°29' E 023°16'910.9
2014-Aug-24 09:32N 36°36' E 023°23'1010.6
2014-Aug-24 08:33N 36°44' E 023°31'3310.9
2014-Aug-24 05:32N 37°09' E 023°58'1111.2
2014-Aug-24 04:33N 37°18' E 024°06'1211.2
2014-Aug-24 03:27N 37°27' E 024°16'1010.8
2014-Aug-24 02:33N 37°35' E 024°24'1010.1
2014-Aug-24 01:32N 37°44' E 024°29'1110.0
2014-Aug-24 00:27N 37°55' E 024°34'22810.3
2014-Aug-23 02:16N 40°47' E 027°47'810.7
2014-Aug-23 01:33N 40°48' E 027°57'15 7.5
2014-Aug-22 23:31N 40°42' E 028°15'  
Track history (hours):
 
Tides and Currents Weather Stations Pressure Air Temp Water Temp Dewpoint Dewpoint Depression Visibility Wind Speed Wind Dir Waves Ship Positions

Flinter Rose

Last reported at 2014-Aug-29 05:11 UTC. Time now 2014-Aug-29 12:15 UTC.
Position N 36°34' W 000°38'.

Length 101 m; draft 5.7 m.

Type: Cargo ship. MMSI: 246227000.

Date/timePositionNaut miles runAvg speedWind from/ knotsBaromVisibWave heightAir tempDewpointWater temp
2014-Aug-29 05:11N 36°34' W 000°38'2810.5
2014-Aug-29 02:34N 36°41' W 000°04'1210.1
2014-Aug-29 01:23N 36°44' E 000°10'910.4
2014-Aug-29 00:29N 36°46' E 000°21'1010.3
2014-Aug-28 23:32N 36°49' E 000°33'10 9.8
2014-Aug-28 22:33N 36°51' E 000°45'1010.1
2014-Aug-28 21:33N 36°54' E 000°57'1110.4
2014-Aug-28 20:32N 36°56' E 001°10'1010.5
2014-Aug-28 19:33N 36°59' E 001°22'1110.6
2014-Aug-28 18:33N 37°02' E 001°35'1010.2
2014-Aug-28 17:33N 37°04' E 001°47'1010.5
2014-Aug-28 16:33N 37°07' E 002°00'1010.4
2014-Aug-28 15:33N 37°09' E 002°13'1210.4
2014-Aug-28 14:21N 37°13' E 002°28'910.5
2014-Aug-28 13:32N 37°15' E 002°38'1010.3
2014-Aug-28 12:33N 37°17' E 002°51'10 9.8
2014-Aug-28 11:33N 37°19' E 003°03'9 9.5
2014-Aug-28 10:33N 37°19' E 003°15'10 9.8
2014-Aug-28 09:33N 37°20' E 003°27'1010.1
2014-Aug-28 08:33N 37°21' E 003°40'1110.6
2014-Aug-28 07:33N 37°22' E 003°53'1111.5
2014-Aug-28 06:33N 37°23' E 004°08'1110.7
2014-Aug-28 05:33N 37°24' E 004°21'1110.3
2014-Aug-28 04:32N 37°25' E 004°34'1210.4
2014-Aug-28 03:23N 37°25' E 004°49'910.1
2014-Aug-28 02:30N 37°26' E 005°00'1110.4
2014-Aug-28 01:29N 37°27' E 005°14'1010.9
2014-Aug-28 00:33N 37°28' E 005°26'1111.3
2014-Aug-27 23:33N 37°29' E 005°40'6711.2
2014-Aug-27 17:33N 37°34' E 007°05'7 7.0
2014-Aug-27 16:32N 37°35' E 007°14'1110.3
2014-Aug-27 15:27N 37°36' E 007°28'22 9.9
2014-Aug-27 13:12N 37°38' E 007°56'5010.3
2014-Aug-27 08:21N 37°41' E 008°59'6 7.2
2014-Aug-27 07:33N 37°41' E 009°06'3 3.3
2014-Aug-27 06:33N 37°41' E 009°11'9 9.5
2014-Aug-27 05:33N 37°41' E 009°23'10 9.6
2014-Aug-27 04:32N 37°41' E 009°35'10 9.6
2014-Aug-27 03:33N 37°41' E 009°47'9 9.5
2014-Aug-27 02:33N 37°42' E 009°59'10 9.6
2014-Aug-27 01:33N 37°42' E 010°11'10 9.7
2014-Aug-27 00:33N 37°42' E 010°23'10 9.7
2014-Aug-26 23:33N 37°40' E 010°35'1010.1
2014-Aug-26 22:33N 37°37' E 010°47'1010.2
2014-Aug-26 21:33N 37°33' E 010°59'1110.6
2014-Aug-26 20:33N 37°30' E 011°12'1111.0
2014-Aug-26 19:33N 37°26' E 011°25'15010.5
2014-Aug-26 05:14N 36°34' E 014°21'710.1
2014-Aug-26 04:33N 36°31' E 014°29'42410.0
2014-Aug-24 10:23N 36°29' E 023°16'910.9
2014-Aug-24 09:32N 36°36' E 023°23'1010.6
2014-Aug-24 08:33N 36°44' E 023°31'3310.9
2014-Aug-24 05:32N 37°09' E 023°58'1111.2
2014-Aug-24 04:33N 37°18' E 024°06'1211.2
2014-Aug-24 03:27N 37°27' E 024°16'1010.8
2014-Aug-24 02:33N 37°35' E 024°24'1010.1
2014-Aug-24 01:32N 37°44' E 024°29'1110.0
2014-Aug-24 00:27N 37°55' E 024°34'22810.3
2014-Aug-23 02:16N 40°47' E 027°47'810.7
2014-Aug-23 01:33N 40°48' E 027°57'15 7.5
2014-Aug-22 23:31N 40°42' E 028°15'  

Dump ship's entire track history